Time;durP1;ratioP1;P1;durP2;ratioP2;P2;SDS_P1;SDS_P2;PMS_P1;PMS_P2;Temp;Humidity;BMP_temperature;BMP_pressure;BME280_temperature;BME280_humidity;BME280_pressure;Samples;Min_cycle;Max_cycle;Signal;HPM_P1;HPM_P2
2021/03/31 00:00:52;;;;;;;8.40;4.00;;;9.00;60.40;;;;;;6277688;28;20076;-80
2021/03/31 00:03:53;;;;;;;7.18;3.92;;;8.90;61.10;;;;;;6279314;28;20064;-77
2021/03/31 00:06:54;;;;;;;5.90;3.83;;;8.90;61.60;;;;;;6279148;28;20080;-80
2021/03/31 00:09:56;;;;;;;3.92;3.28;;;8.80;61.70;;;;;;6279181;28;20098;-79
2021/03/31 00:12:58;;;;;;;6.43;3.38;;;8.70;61.10;;;;;;6284172;28;20060;-77
2021/03/31 00:15:59;;;;;;;7.15;4.63;;;8.70;61.10;;;;;;6303128;28;20045;-77
2021/03/31 00:19:00;;;;;;;4.75;3.67;;;8.70;61.30;;;;;;6303986;28;20029;-76
2021/03/31 00:22:02;;;;;;;11.25;4.45;;;8.60;62.20;;;;;;6310383;28;20044;-77
2021/03/31 00:25:06;;;;;;;5.70;3.60;;;8.60;62.20;;;;;;6328409;28;20036;-77
2021/03/31 00:28:08;;;;;;;7.85;4.43;;;8.50;62.60;;;;;;6328309;28;20033;-77
2021/03/31 00:31:09;;;;;;;4.05;3.00;;;8.40;62.50;;;;;;6327311;28;20049;-78
2021/03/31 00:34:11;;;;;;;5.68;4.15;;;8.40;62.60;;;;;;6323041;28;20044;-79
2021/03/31 00:37:12;;;;;;;9.25;5.38;;;8.30;63.00;;;;;;6305869;28;20064;-79
2021/03/31 00:40:17;;;;;;;6.57;4.07;;;8.20;63.40;;;;;;6305595;28;20063;-80
2021/03/31 00:43:19;;;;;;;5.63;3.42;;;8.10;63.70;;;;;;6304915;28;20104;-79
2021/03/31 00:46:20;;;;;;;5.57;3.67;;;8.10;64.00;;;;;;6304727;28;20060;-79
2021/03/31 00:49:21;;;;;;;7.03;4.30;;;8.10;64.00;;;;;;6304417;28;20083;-79
2021/03/31 00:52:23;;;;;;;10.98;4.10;;;8.10;64.20;;;;;;6303641;28;20068;-78
2021/03/31 00:55:27;;;;;;;9.90;3.97;;;8.00;64.70;;;;;;6303126;28;20106;-79
2021/03/31 00:58:28;;;;;;;7.65;3.75;;;7.90;65.10;;;;;;6303547;28;20139;-80
2021/03/31 01:01:29;;;;;;;4.85;3.58;;;7.90;65.30;;;;;;6305096;28;20118;-80
2021/03/31 01:04:31;;;;;;;5.43;3.83;;;7.90;65.60;;;;;;6305109;28;20122;-80
2021/03/31 01:07:32;;;;;;;15.85;4.00;;;7.90;65.80;;;;;;6303893;28;20525;-79
2021/03/31 01:10:37;;;;;;;5.85;5.13;;;7.90;65.60;;;;;;6305047;28;20057;-80
2021/03/31 01:13:52;;;;;;;6.30;4.57;;;7.80;66.10;;;;;;6308443;28;20123;-80
2021/03/31 01:16:56;;;;;;;6.90;3.72;;;7.70;66.40;;;;;;6315191;28;20055;-78
2021/03/31 01:20:53;;;;;;;3.88;3.47;;;7.60;66.30;;;;;;6313691;28;20079;-80
2021/03/31 01:24:16;;;;;;;8.10;4.20;;;7.60;67.00;;;;;;6290135;28;20104;-79
2021/03/31 01:27:23;;;;;;;4.80;3.25;;;7.40;67.00;;;;;;6308959;28;20075;-80
2021/03/31 01:30:30;;;;;;;9.88;4.53;;;7.40;67.30;;;;;;6309148;28;20131;-79
2021/03/31 01:33:54;;;;;;;7.80;3.65;;;7.30;67.60;;;;;;6308620;28;20044;-79
2021/03/31 01:37:00;;;;;;;8.60;4.20;;;7.30;67.90;;;;;;6308307;28;20080;-79
2021/03/31 01:40:04;;;;;;;9.40;4.20;;;7.30;67.80;;;;;;6308313;28;20127;-80
2021/03/31 01:43:08;;;;;;;10.15;5.35;;;7.20;68.20;;;;;;6308796;28;20106;-80
2021/03/31 01:46:10;;;;;;;5.30;3.90;;;7.20;68.50;;;;;;6309171;28;20064;-80
2021/03/31 01:49:11;;;;;;;9.10;4.60;;;7.20;68.40;;;;;;6307423;28;20140;-80
2021/03/31 01:52:15;;;;;;;6.63;4.13;;;7.10;68.60;;;;;;6307504;28;20535;-80
2021/03/31 01:55:17;;;;;;;3.72;3.30;;;7.00;68.80;;;;;;6306460;28;20551;-80
2021/03/31 01:58:19;;;;;;;5.63;4.00;;;7.00;69.20;;;;;;6308132;28;20131;-80
2021/03/31 02:01:22;;;;;;;5.57;3.65;;;6.90;69.60;;;;;;6307748;28;20056;-80
2021/03/31 02:04:25;;;;;;;7.00;3.92;;;6.90;70.20;;;;;;6307209;28;20044;-80
2021/03/31 02:07:28;;;;;;;7.38;4.00;;;6.80;70.60;;;;;;6307752;28;20469;-80
2021/03/31 02:10:30;;;;;;;4.55;3.40;;;6.90;70.70;;;;;;6310587;28;20098;-80
2021/03/31 02:13:33;;;;;;;5.65;3.47;;;6.80;70.40;;;;;;6309476;28;20128;-80
2021/03/31 02:16:35;;;;;;;5.85;3.90;;;6.70;70.90;;;;;;6309652;28;20139;-80
2021/03/31 02:19:38;;;;;;;4.57;4.07;;;6.60;71.60;;;;;;6309540;28;20045;-79
2021/03/31 02:22:41;;;;;;;11.60;3.85;;;6.60;71.60;;;;;;6313715;28;20068;-80
2021/03/31 02:25:42;;;;;;;6.00;4.10;;;6.60;71.60;;;;;;6306941;28;20064;-80
2021/03/31 02:28:44;;;;;;;6.15;4.38;;;6.50;71.90;;;;;;6306908;28;20041;-79
2021/03/31 02:31:46;;;;;;;8.45;5.07;;;6.50;72.30;;;;;;6307192;28;20095;-80
2021/03/31 02:34:49;;;;;;;6.97;4.82;;;6.40;72.90;;;;;;6306732;28;20139;-78
2021/03/31 02:37:54;;;;;;;5.10;4.22;;;6.40;73.10;;;;;;6305893;28;20055;-80
2021/03/31 02:40:57;;;;;;;6.50;4.20;;;6.40;73.10;;;;;;6307304;28;20140;-80
2021/03/31 02:44:00;;;;;;;5.47;4.22;;;6.40;73.40;;;;;;6306991;28;20068;-80
2021/03/31 02:47:05;;;;;;;6.28;5.63;;;6.30;73.70;;;;;;6307358;28;20116;-80
2021/03/31 02:50:08;;;;;;;6.90;4.63;;;6.30;74.00;;;;;;6280840;28;20563;-80
2021/03/31 02:53:11;;;;;;;6.93;4.05;;;6.30;74.10;;;;;;6281027;28;20049;-79
2021/03/31 02:56:14;;;;;;;6.22;5.18;;;6.30;74.10;;;;;;6281836;28;20116;-80
2021/03/31 02:59:16;;;;;;;6.93;4.47;;;6.20;74.20;;;;;;6281706;28;20049;-80
2021/03/31 03:02:19;;;;;;;9.25;4.43;;;6.20;74.40;;;;;;6281509;28;20052;-80
2021/03/31 03:05:21;;;;;;;5.82;5.22;;;6.20;74.30;;;;;;6280526;28;20516;-80
2021/03/31 03:08:25;;;;;;;7.68;3.45;;;6.20;74.30;;;;;;6282000;28;20064;-80
2021/03/31 03:11:27;;;;;;;7.78;4.82;;;6.10;74.80;;;;;;6280975;28;20044;-80
2021/03/31 03:14:30;;;;;;;4.30;3.50;;;6.00;75.00;;;;;;6280634;28;20083;-80
2021/03/31 03:17:31;;;;;;;7.05;4.22;;;6.00;75.20;;;;;;6281499;28;20056;-79
2021/03/31 03:20:32;;;;;;;9.88;4.32;;;5.90;75.30;;;;;;6279426;28;20128;-80
2021/03/31 03:23:36;;;;;;;4.85;4.22;;;5.90;75.60;;;;;;6280003;28;20565;-79
2021/03/31 03:26:38;;;;;;;11.98;4.13;;;5.90;75.70;;;;;;6280944;28;20072;-80
2021/03/31 03:29:42;;;;;;;7.05;4.28;;;5.90;75.80;;;;;;6280233;28;20071;-80
2021/03/31 03:32:47;;;;;;;17.20;5.25;;;5.90;75.80;;;;;;6278813;28;20072;-77
2021/03/31 03:35:48;;;;;;;8.43;5.13;;;5.90;76.00;;;;;;6279219;28;20184;-80
2021/03/31 03:38:50;;;;;;;4.10;3.70;;;5.90;76.20;;;;;;6284122;28;20048;-80
2021/03/31 03:41:52;;;;;;;5.75;5.13;;;5.90;76.50;;;;;;6283226;28;20072;-80
2021/03/31 03:44:53;;;;;;;5.38;4.68;;;5.80;76.80;;;;;;6279352;28;20075;-81
2021/03/31 03:47:56;;;;;;;6.03;4.07;;;5.80;77.00;;;;;;6279827;28;20152;-80
2021/03/31 03:50:57;;;;;;;7.13;4.18;;;5.80;77.50;;;;;;6279012;28;20137;-80
2021/03/31 03:54:00;;;;;;;7.13;4.28;;;5.80;77.50;;;;;;6277547;28;20084;-80
2021/03/31 03:57:02;;;;;;;7.85;5.15;;;5.80;77.30;;;;;;6278696;28;20124;-79
2021/03/31 04:00:12;;;;;;;22.33;4.40;;;5.70;77.40;;;;;;6278448;28;20502;-78
2021/03/31 04:03:13;;;;;;;5.85;4.57;;;5.70;77.60;;;;;;6277561;28;20175;-80
2021/03/31 04:06:14;;;;;;;4.78;3.45;;;5.70;77.80;;;;;;6279947;28;20133;-78
2021/03/31 04:09:16;;;;;;;6.93;4.22;;;5.60;78.00;;;;;;6279725;28;20119;-79
2021/03/31 04:12:18;;;;;;;4.97;3.97;;;5.60;78.30;;;;;;6278008;28;20041;-79
2021/03/31 04:15:20;;;;;;;7.18;3.65;;;5.60;78.30;;;;;;6278035;28;20074;-80
2021/03/31 04:18:22;;;;;;;5.25;4.22;;;5.60;78.90;;;;;;6279230;28;20068;-79
2021/03/31 04:21:23;;;;;;;4.60;4.03;;;5.60;78.60;;;;;;6277707;28;20045;-79
2021/03/31 04:24:26;;;;;;;5.57;4.38;;;5.60;78.40;;;;;;6277942;28;20132;-78
2021/03/31 04:27:29;;;;;;;5.95;4.57;;;5.60;78.30;;;;;;6276987;28;20105;-78
2021/03/31 04:30:30;;;;;;;5.45;4.57;;;5.60;78.40;;;;;;6277572;28;20056;-78
2021/03/31 04:33:32;;;;;;;7.32;5.20;;;5.60;78.50;;;;;;6276834;28;20494;-79
2021/03/31 04:36:34;;;;;;;7.22;4.80;;;5.60;78.50;;;;;;6279915;28;20069;-78
2021/03/31 04:39:37;;;;;;;15.88;5.18;;;5.50;78.80;;;;;;6279876;28;20506;-79
2021/03/31 04:42:38;;;;;;;9.30;4.72;;;5.50;79.10;;;;;;6282341;28;20107;-79
2021/03/31 04:45:40;;;;;;;12.85;4.47;;;5.40;79.10;;;;;;6286947;28;20072;-78
2021/03/31 04:48:42;;;;;;;12.48;5.18;;;5.40;79.10;;;;;;6289214;28;20110;-79
2021/03/31 04:51:43;;;;;;;18.52;5.40;;;5.40;79.10;;;;;;6287090;28;20069;-79
2021/03/31 04:54:45;;;;;;;14.82;5.75;;;5.30;79.20;;;;;;6286799;28;20053;-77
2021/03/31 04:57:46;;;;;;;10.23;4.88;;;5.30;79.50;;;;;;6286356;28;20049;-77
2021/03/31 05:00:48;;;;;;;13.60;6.78;;;5.30;79.50;;;;;;6285420;28;20136;-79
2021/03/31 05:03:49;;;;;;;33.33;9.98;;;5.30;79.90;;;;;;6285075;28;20099;-78
2021/03/31 05:06:50;;;;;;;18.70;5.60;;;5.30;80.10;;;;;;6285127;28;20473;-79
2021/03/31 05:09:53;;;;;;;24.45;5.35;;;5.30;80.10;;;;;;6284582;28;20048;-78
2021/03/31 05:12:54;;;;;;;12.00;5.85;;;5.30;80.30;;;;;;6284464;28;20491;-80
2021/03/31 05:15:55;;;;;;;22.77;6.18;;;5.30;80.40;;;;;;6284682;28;20045;-78
2021/03/31 05:18:57;;;;;;;10.00;5.65;;;5.20;80.70;;;;;;6285197;28;20274;-79
2021/03/31 05:21:58;;;;;;;7.18;5.22;;;5.20;80.90;;;;;;6284077;28;20494;-79
2021/03/31 05:25:00;;;;;;;23.55;9.02;;;5.20;81.00;;;;;;6283899;28;20037;-78
2021/03/31 05:28:02;;;;;;;9.10;6.45;;;5.20;81.00;;;;;;6285729;28;20123;-78
2021/03/31 05:31:03;;;;;;;10.85;6.40;;;5.30;81.00;;;;;;6284419;28;20543;-79
2021/03/31 05:34:04;;;;;;;14.73;6.20;;;5.30;81.00;;;;;;6283401;28;20376;-78
2021/03/31 05:37:06;;;;;;;21.92;6.85;;;5.30;81.00;;;;;;6282769;28;20056;-79
2021/03/31 05:40:09;;;;;;;11.73;6.07;;;5.40;81.00;;;;;;6283294;28;20128;-79
2021/03/31 05:43:11;;;;;;;8.90;5.85;;;5.40;81.10;;;;;;6282064;28;20437;-78
2021/03/31 05:46:12;;;;;;;10.63;5.15;;;5.50;81.00;;;;;;6283107;28;20068;-77
2021/03/31 05:49:14;;;;;;;6.55;4.57;;;5.50;81.00;;;;;;6282512;28;20065;-79
2021/03/31 05:52:15;;;;;;;6.40;4.97;;;5.60;81.10;;;;;;6283603;28;20406;-79
2021/03/31 05:55:18;;;;;;;18.05;7.90;;;5.70;80.80;;;;;;6283244;28;20055;-78
2021/03/31 05:58:20;;;;;;;9.73;5.93;;;5.80;80.80;;;;;;6283146;28;20052;-79
2021/03/31 06:01:21;;;;;;;8.40;5.75;;;5.80;80.80;;;;;;6282767;28;20136;-79
2021/03/31 06:04:23;;;;;;;9.02;6.30;;;6.00;80.60;;;;;;6268254;28;20083;-78
2021/03/31 06:07:24;;;;;;;9.68;6.95;;;6.20;80.10;;;;;;6284850;28;20120;-78
2021/03/31 06:10:27;;;;;;;8.07;4.85;;;6.30;79.60;;;;;;6293767;28;20054;-78
2021/03/31 06:13:50;;;;;;;13.30;4.70;;;6.40;79.50;;;;;;6291519;28;20053;-78
2021/03/31 06:16:51;;;;;;;12.90;5.40;;;6.60;79.30;;;;;;6275410;28;20530;-78
2021/03/31 06:19:52;;;;;;;11.38;5.55;;;6.80;79.00;;;;;;6275661;28;20509;-78
2021/03/31 06:23:07;;;;;;;10.93;7.53;;;7.10;78.60;;;;;;6275940;28;20049;-78
2021/03/31 06:26:20;;;;;;;18.63;6.15;;;7.40;77.40;;;;;;6276339;28;20053;-78
2021/03/31 06:29:22;;;;;;;17.73;6.97;;;7.60;76.80;;;;;;6276054;28;20049;-78
2021/03/31 06:32:23;;;;;;;7.53;5.88;;;7.80;76.50;;;;;;6276010;28;20115;-78
2021/03/31 06:35:27;;;;;;;6.20;4.68;;;8.10;76.30;;;;;;6277014;28;20175;-77
2021/03/31 06:38:29;;;;;;;17.65;5.32;;;8.30;76.00;;;;;;6281341;28;20102;-78
2021/03/31 06:41:33;;;;;;;7.70;4.55;;;8.60;75.80;;;;;;6275725;28;20053;-78
2021/03/31 06:44:45;;;;;;;10.88;4.68;;;9.00;75.20;;;;;;6276630;28;20041;-78
2021/03/31 06:47:53;;;;;;;14.23;5.05;;;9.20;74.60;;;;;;6276666;28;20071;-78
2021/03/31 06:50:55;;;;;;;15.00;6.72;;;9.50;73.80;;;;;;6276751;28;20048;-78
2021/03/31 06:53:56;;;;;;;8.27;3.60;;;9.80;73.40;;;;;;6274588;28;20124;-78
2021/03/31 06:56:58;;;;;;;4.78;3.85;;;10.00;72.80;;;;;;6274831;28;20195;-77
2021/03/31 07:00:05;;;;;;;10.48;4.18;;;10.30;72.30;;;;;;6278066;28;20137;-77
2021/03/31 07:03:08;;;;;;;6.43;4.10;;;10.70;71.60;;;;;;6281789;28;20045;-78
2021/03/31 07:06:13;;;;;;;7.57;4.28;;;11.10;70.70;;;;;;6282530;28;20105;-79
2021/03/31 07:09:18;;;;;;;6.57;3.67;;;11.40;69.70;;;;;;6281365;28;20041;-78
2021/03/31 07:12:23;;;;;;;10.57;3.92;;;11.80;68.40;;;;;;6278837;28;20045;-77
2021/03/31 07:15:27;;;;;;;4.95;4.45;;;12.20;67.10;;;;;;6280416;28;20099;-78
2021/03/31 07:18:30;;;;;;;6.35;3.83;;;12.70;66.30;;;;;;6281925;28;20084;-77
2021/03/31 07:21:32;;;;;;;5.90;3.45;;;13.20;64.60;;;;;;6277115;28;20073;-77
2021/03/31 07:24:34;;;;;;;7.05;4.28;;;13.60;61.40;;;;;;6273563;28;20486;-78
2021/03/31 07:27:36;;;;;;;5.95;3.65;;;13.90;60.40;;;;;;6273583;28;20072;-78
2021/03/31 07:30:37;;;;;;;8.75;3.65;;;14.20;58.60;;;;;;6274211;28;20095;-77
2021/03/31 07:33:42;;;;;;;6.72;4.05;;;14.50;57.20;;;;;;6273799;28;20055;-78
2021/03/31 07:36:47;;;;;;;4.03;3.30;;;14.80;56.30;;;;;;6273326;28;20049;-77
2021/03/31 07:39:50;;;;;;;4.22;3.13;;;15.00;55.90;;;;;;6278507;28;20533;-79
2021/03/31 07:42:57;;;;;;;4.85;3.70;;;15.30;54.90;;;;;;6279930;28;20060;-79
2021/03/31 07:46:03;;;;;;;5.95;3.70;;;15.60;55.00;;;;;;6279973;28;20052;-79
2021/03/31 07:49:05;;;;;;;4.20;3.80;;;15.80;54.70;;;;;;6280857;28;20072;-78
2021/03/31 07:52:07;;;;;;;6.90;3.92;;;16.00;53.80;;;;;;6282487;28;20105;-79
2021/03/31 07:55:28;;;;;;;12.23;3.60;;;16.30;53.20;;;;;;6275436;28;20421;-77
2021/03/31 07:58:30;;;;;;;4.80;3.03;;;16.60;52.70;;;;;;6275957;28;20603;-79
2021/03/31 08:01:33;;;;;;;7.80;3.42;;;16.80;51.60;;;;;;6273355;28;20132;-79
2021/03/31 08:04:37;;;;;;;10.50;3.80;;;17.00;50.80;;;;;;6272341;28;20052;-78
2021/03/31 08:07:39;;;;;;;7.78;3.63;;;17.20;50.20;;;;;;6273311;28;20180;-78
2021/03/31 08:10:45;;;;;;;7.28;4.70;;;17.40;50.40;;;;;;6278186;28;20155;-78
2021/03/31 08:13:53;;;;;;;5.88;4.20;;;17.60;49.20;;;;;;6295976;28;20045;-78
2021/03/31 08:16:57;;;;;;;6.80;3.85;;;17.90;49.00;;;;;;6310530;28;20056;-78
2021/03/31 08:19:59;;;;;;;10.57;5.20;;;18.10;49.60;;;;;;6301868;28;20076;-78
2021/03/31 08:23:02;;;;;;;7.40;4.57;;;18.30;48.70;;;;;;6301005;28;20693;-78
2021/03/31 08:26:28;;;;;;;8.32;5.55;;;18.70;48.10;;;;;;6301982;28;20135;-78
2021/03/31 08:29:48;;;;;;;7.85;4.18;;;19.10;47.70;;;;;;6301162;28;20048;-78
2021/03/31 08:32:49;;;;;;;6.30;4.35;;;19.50;47.10;;;;;;6301116;28;20521;-79
2021/03/31 08:35:50;;;;;;;15.77;5.57;;;19.70;46.10;;;;;;6300817;28;20273;-78
2021/03/31 08:38:53;;;;;;;10.02;4.95;;;19.90;46.00;;;;;;6301802;28;20084;-78
2021/03/31 08:41:56;;;;;;;8.43;4.72;;;20.20;45.30;;;;;;6300658;28;20127;-78
2021/03/31 08:45:04;;;;;;;19.85;6.47;;;20.40;44.40;;;;;;6301666;28;20047;-78
2021/03/31 08:48:06;;;;;;;10.88;5.70;;;20.60;44.30;;;;;;6300909;28;20413;-78
2021/03/31 08:51:09;;;;;;;8.23;4.53;;;20.80;44.00;;;;;;6301697;28;20139;-78
2021/03/31 08:54:11;;;;;;;11.65;4.93;;;21.10;44.00;;;;;;6302320;28;20611;-78
2021/03/31 08:57:15;;;;;;;13.85;4.85;;;21.10;44.40;;;;;;6272965;28;20037;-78
2021/03/31 09:00:18;;;;;;;5.55;4.20;;;21.10;44.00;;;;;;6278995;28;20126;-78
2021/03/31 09:03:20;;;;;;;18.92;4.45;;;21.30;43.50;;;;;;6277203;28;20083;-78
2021/03/31 09:06:22;;;;;;;5.03;4.50;;;21.50;42.80;;;;;;6278108;28;20738;-78
2021/03/31 09:09:24;;;;;;;9.35;4.63;;;21.60;41.90;;;;;;6278034;28;20073;-80
2021/03/31 09:12:28;;;;;;;11.25;4.05;;;21.70;41.50;;;;;;6277883;28;20045;-78
2021/03/31 09:15:31;;;;;;;8.63;4.47;;;21.90;40.50;;;;;;6277077;28;20132;-79
2021/03/31 09:18:32;;;;;;;11.02;4.10;;;22.20;39.70;;;;;;6276566;28;21120;-79
2021/03/31 09:21:36;;;;;;;7.38;4.25;;;22.30;39.60;;;;;;6277540;28;20109;-79
2021/03/31 09:24:39;;;;;;;8.02;3.92;;;22.40;37.40;;;;;;6278891;28;20044;-79
2021/03/31 09:27:40;;;;;;;11.52;4.30;;;22.50;37.60;;;;;;6279084;28;20057;-79
2021/03/31 09:30:45;;;;;;;9.90;4.15;;;22.50;37.60;;;;;;6279450;28;20080;-78
2021/03/31 09:33:46;;;;;;;7.93;5.20;;;22.60;37.20;;;;;;6280465;28;20490;-79
2021/03/31 09:37:03;;;;;;;7.75;4.50;;;22.70;36.60;;;;;;6283400;28;20109;-79
2021/03/31 09:40:06;;;;;;;9.82;5.50;;;22.80;37.00;;;;;;6282172;28;20135;-79
2021/03/31 09:43:07;;;;;;;11.90;7.43;;;22.90;37.30;;;;;;6283584;28;20045;-79
2021/03/31 09:46:10;;;;;;;9.23;5.55;;;23.00;37.10;;;;;;6287462;28;20095;-80
2021/03/31 09:49:13;;;;;;;16.92;7.35;;;23.20;37.30;;;;;;6281617;28;20049;-79
2021/03/31 09:52:14;;;;;;;10.93;6.03;;;23.30;37.00;;;;;;6283581;28;20044;-79
2021/03/31 09:55:15;;;;;;;9.32;5.55;;;23.50;37.30;;;;;;6298671;28;20049;-79
2021/03/31 09:58:24;;;;;;;12.38;6.38;;;23.50;37.00;;;;;;6285786;28;20077;-80
2021/03/31 10:01:27;;;;;;;13.35;6.50;;;23.60;37.70;;;;;;6283205;28;20041;-80
2021/03/31 10:04:32;;;;;;;11.98;5.45;;;23.80;36.60;;;;;;6283078;28;20045;-80
2021/03/31 10:07:34;;;;;;;10.88;5.00;;;23.80;36.70;;;;;;6282684;28;20049;-80
2021/03/31 10:10:40;;;;;;;6.50;4.75;;;23.90;36.80;;;;;;6282641;28;20091;-81
2021/03/31 10:13:41;;;;;;;10.70;6.10;;;24.00;36.20;;;;;;6281687;28;20049;-79
2021/03/31 10:16:44;;;;;;;14.48;5.53;;;24.20;36.00;;;;;;6282727;28;20049;-78
2021/03/31 10:19:46;;;;;;;7.55;5.90;;;24.30;35.40;;;;;;6280765;28;20124;-78
2021/03/31 10:22:53;;;;;;;13.32;6.72;;;24.50;34.80;;;;;;6279576;28;20076;-77
2021/03/31 10:26:16;;;;;;;17.15;5.22;;;24.70;34.60;;;;;;6275979;28;20067;-77
2021/03/31 10:29:23;;;;;;;14.55;5.97;;;24.80;34.60;;;;;;6278304;28;20376;-78
2021/03/31 10:32:25;;;;;;;15.20;7.22;;;24.80;35.00;;;;;;6280187;28;20479;-79
2021/03/31 10:35:45;;;;;;;9.90;5.40;;;25.00;34.60;;;;;;6279588;28;20072;-79
2021/03/31 10:39:06;;;;;;;9.13;6.03;;;25.10;34.00;;;;;;6279577;28;20057;-78
2021/03/31 10:49:12;;;;;;;10.80;6.05;;;25.60;32.20;;;;;;6265495;28;20110;-77
2021/03/31 10:52:16;;;;;;;11.85;6.57;;;25.60;33.30;;;;;;6279748;28;20534;-78
2021/03/31 10:55:18;;;;;;;15.18;7.07;;;25.70;32.70;;;;;;6280963;28;20102;-79
2021/03/31 10:58:19;;;;;;;12.07;6.95;;;25.90;32.50;;;;;;6279004;28;20049;-78
2021/03/31 11:01:21;;;;;;;13.07;7.28;;;25.90;32.50;;;;;;6279973;28;20049;-77
2021/03/31 11:04:23;;;;;;;22.80;9.57;;;26.00;32.10;;;;;;6277425;28;20069;-76
2021/03/31 11:07:24;;;;;;;15.75;9.82;;;26.20;32.80;;;;;;6277950;28;20065;-78
2021/03/31 11:10:26;;;;;;;13.98;8.65;;;26.30;32.00;;;;;;6277578;28;20049;-76
2021/03/31 11:13:27;;;;;;;11.57;7.88;;;26.30;31.40;;;;;;6275889;28;20353;-78
2021/03/31 11:16:28;;;;;;;18.90;7.05;;;26.40;31.00;;;;;;6278992;28;20075;-78
2021/03/31 11:19:45;;;;;;;14.60;6.60;;;26.50;31.20;;;;;;6278715;28;20045;-77
2021/03/31 11:26:05;;;;;;;14.55;8.38;;;26.70;30.70;;;;;;6276301;28;20053;-77
2021/03/31 11:29:07;;;;;;;12.70;8.05;;;26.80;30.30;;;;;;6273764;28;20135;-78
2021/03/31 11:32:08;;;;;;;12.00;7.13;;;27.00;31.00;;;;;;6273222;28;20045;-78
2021/03/31 11:35:12;;;;;;;10.90;7.00;;;27.00;30.20;;;;;;6272975;28;20059;-78
2021/03/31 11:38:14;;;;;;;11.07;7.65;;;27.20;31.10;;;;;;6273318;28;20179;-78
2021/03/31 11:41:15;;;;;;;10.38;7.32;;;27.20;31.30;;;;;;6273140;28;20072;-77
2021/03/31 11:44:16;;;;;;;12.25;7.57;;;27.20;30.60;;;;;;6272137;28;20068;-78
2021/03/31 11:47:18;;;;;;;11.93;7.10;;;27.20;30.60;;;;;;6273320;28;20136;-77
2021/03/31 11:50:22;;;;;;;20.60;9.90;;;27.30;30.40;;;;;;6272359;28;20128;-77
2021/03/31 11:53:28;;;;;;;17.27;7.55;;;27.40;30.40;;;;;;6269831;28;20076;-77
2021/03/31 11:56:30;;;;;;;12.98;8.15;;;27.60;30.40;;;;;;6271425;28;20049;-78
2021/03/31 11:59:31;;;;;;;15.95;7.18;;;27.50;30.00;;;;;;6270135;28;20135;-77
2021/03/31 12:02:32;;;;;;;12.60;7.78;;;27.50;30.00;;;;;;6270238;28;20473;-77
2021/03/31 12:05:34;;;;;;;16.00;7.97;;;27.60;30.30;;;;;;6270709;28;20136;-78
2021/03/31 12:08:36;;;;;;;12.73;7.15;;;27.70;29.90;;;;;;6271348;28;20118;-77
2021/03/31 12:11:38;;;;;;;12.63;7.82;;;27.80;30.10;;;;;;6270874;28;20041;-77
2021/03/31 12:14:39;;;;;;;14.15;6.85;;;27.90;29.70;;;;;;6279663;28;20490;-77
2021/03/31 12:17:41;;;;;;;8.57;5.43;;;27.90;29.00;;;;;;6270829;28;20131;-77
2021/03/31 12:20:44;;;;;;;6.82;4.82;;;28.10;28.00;;;;;;6270611;28;20079;-78
2021/03/31 12:23:46;;;;;;;7.70;3.50;;;28.10;28.30;;;;;;6270705;28;20127;-77
2021/03/31 12:26:47;;;;;;;5.88;3.78;;;28.20;26.00;;;;;;6271242;28;20082;-77
2021/03/31 12:29:48;;;;;;;7.07;3.63;;;28.20;26.70;;;;;;6270866;28;20064;-78
2021/03/31 12:32:50;;;;;;;9.15;5.63;;;28.30;25.50;;;;;;6270548;28;20127;-77
2021/03/31 12:35:52;;;;;;;11.88;3.78;;;28.30;27.30;;;;;;6270840;28;20048;-77
2021/03/31 12:38:53;;;;;;;9.18;3.70;;;28.30;27.10;;;;;;6271166;28;20128;-77
2021/03/31 12:41:54;;;;;;;11.07;4.22;;;28.30;27.40;;;;;;6271016;28;20047;-78
2021/03/31 12:44:56;;;;;;;6.47;3.90;;;28.30;27.30;;;;;;6272829;28;20128;-79
2021/03/31 12:47:57;;;;;;;8.10;4.45;;;28.30;26.50;;;;;;6273079;28;20097;-77
2021/03/31 12:51:02;;;;;;;7.07;4.30;;;28.40;26.30;;;;;;6276795;28;20052;-77
2021/03/31 12:54:08;;;;;;;10.10;5.28;;;28.40;27.10;;;;;;6274190;28;20042;-78
2021/03/31 12:57:10;;;;;;;9.55;4.80;;;28.50;27.30;;;;;;6276510;28;20126;-79
2021/03/31 13:00:12;;;;;;;7.75;4.97;;;29.10;26.80;;;;;;6273681;28;20049;-78
2021/03/31 13:03:13;;;;;;;10.50;5.88;;;29.50;26.50;;;;;;6269433;28;20076;-78
2021/03/31 13:06:15;;;;;;;13.73;6.57;;;29.70;27.10;;;;;;6275561;28;20135;-79
2021/03/31 13:09:17;;;;;;;7.22;5.50;;;29.90;27.40;;;;;;6278045;28;20550;-78
2021/03/31 13:12:22;;;;;;;7.07;4.93;;;29.90;26.90;;;;;;6284143;28;20053;-79
2021/03/31 13:15:28;;;;;;;12.27;6.85;;;30.00;27.30;;;;;;6288684;28;20174;-79
2021/03/31 13:25:14;;;;;;;7.78;5.18;;;30.30;26.20;;;;;;6282134;28;20104;-78
2021/03/31 13:28:37;;;;;;;6.20;4.22;;;30.30;26.30;;;;;;6282301;28;20064;-79
2021/03/31 13:31:40;;;;;;;6.85;4.20;;;30.30;25.80;;;;;;6282396;28;20546;-79
2021/03/31 13:34:45;;;;;;;15.75;4.95;;;30.20;25.70;;;;;;6280710;28;20099;-77
2021/03/31 13:37:51;;;;;;;7.00;4.40;;;30.20;26.90;;;;;;6274851;28;20132;-78
2021/03/31 13:40:52;;;;;;;6.13;3.47;;;30.40;26.50;;;;;;6280784;28;20049;-79
2021/03/31 13:43:54;;;;;;;7.00;4.22;;;30.40;26.30;;;;;;6278584;28;20048;-78
2021/03/31 13:46:58;;;;;;;8.23;4.53;;;30.40;26.40;;;;;;6282891;28;20068;-78
2021/03/31 13:50:01;;;;;;;9.77;4.25;;;30.30;26.70;;;;;;6279966;28;20053;-79
2021/03/31 13:53:04;;;;;;;7.88;3.97;;;30.30;26.70;;;;;;6282393;28;20053;-79
2021/03/31 13:56:11;;;;;;;6.97;3.70;;;30.30;26.10;;;;;;6282200;28;20390;-79
2021/03/31 13:59:13;;;;;;;7.15;3.45;;;30.40;25.40;;;;;;6279510;28;20457;-78
2021/03/31 14:02:14;;;;;;;8.27;3.15;;;30.60;25.40;;;;;;6271693;28;20057;-77
2021/03/31 14:05:16;;;;;;;3.97;2.65;;;30.60;25.20;;;;;;6279193;28;20061;-77
2021/03/31 14:08:18;;;;;;;7.78;3.00;;;30.50;25.20;;;;;;6276979;28;20088;-78
2021/03/31 14:11:19;;;;;;;10.43;2.97;;;30.60;25.20;;;;;;6276670;28;20136;-79
2021/03/31 14:14:21;;;;;;;7.40;3.03;;;30.60;25.70;;;;;;6281666;28;20045;-78
2021/03/31 14:17:24;;;;;;;4.53;2.67;;;30.70;25.60;;;;;;6277594;28;20049;-77
2021/03/31 14:20:25;;;;;;;3.42;2.50;;;30.70;25.70;;;;;;6276073;28;20079;-78
2021/03/31 14:23:28;;;;;;;4.32;2.40;;;30.90;24.50;;;;;;6277406;28;20051;-78
2021/03/31 14:26:29;;;;;;;3.15;2.35;;;31.00;24.20;;;;;;6278004;28;20051;-78
2021/03/31 14:29:30;;;;;;;10.52;2.80;;;31.10;24.70;;;;;;6276627;28;20057;-78
2021/03/31 14:32:32;;;;;;;5.72;3.35;;;31.00;24.90;;;;;;6277033;28;20537;-79
2021/03/31 14:35:33;;;;;;;3.38;2.28;;;31.00;24.30;;;;;;6277094;28;20109;-78
2021/03/31 14:38:35;;;;;;;6.80;2.65;;;30.90;24.10;;;;;;6276785;28;20134;-78
2021/03/31 14:41:37;;;;;;;6.68;3.42;;;30.90;24.90;;;;;;6276512;28;20044;-77
2021/03/31 14:44:38;;;;;;;7.53;2.95;;;31.00;25.00;;;;;;6277675;28;20061;-77
2021/03/31 14:47:40;;;;;;;5.43;2.20;;;30.90;24.60;;;;;;6277649;28;20533;-77
2021/03/31 14:50:41;;;;;;;5.72;3.03;;;30.80;24.70;;;;;;6277364;28;20053;-78
2021/03/31 14:57:11;;;;;;;6.45;2.40;;;30.50;24.60;;;;;;6279325;28;20158;-79
2021/03/31 15:00:14;;;;;;;6.20;2.35;;;30.40;25.10;;;;;;6285426;28;20053;-78
2021/03/31 15:03:15;;;;;;;13.02;7.38;;;30.40;24.50;;;;;;6275687;28;20158;-79
2021/03/31 15:06:16;;;;;;;8.48;4.03;;;30.50;24.30;;;;;;6276433;28;20072;-77
2021/03/31 15:09:18;;;;;;;5.97;2.83;;;30.40;24.20;;;;;;6274704;28;20072;-78
2021/03/31 15:12:20;;;;;;;5.45;2.25;;;30.20;24.40;;;;;;6273731;28;20041;-78
2021/03/31 15:15:21;;;;;;;4.95;1.73;;;30.10;24.60;;;;;;6273349;28;20094;-78
2021/03/31 15:18:22;;;;;;;4.68;1.85;;;29.80;24.70;;;;;;6274319;28;20142;-78
2021/03/31 15:21:36;;;;;;;10.85;2.78;;;29.60;24.60;;;;;;6274975;28;20072;-80
2021/03/31 15:24:38;;;;;;;6.40;2.22;;;29.40;25.30;;;;;;6282534;28;20052;-78
2021/03/31 15:27:40;;;;;;;8.43;2.63;;;29.20;25.00;;;;;;6274364;28;20132;-79
2021/03/31 15:30:41;;;;;;;8.90;2.40;;;28.90;24.90;;;;;;6278605;28;20184;-79
2021/03/31 15:33:42;;;;;;;13.23;2.95;;;28.70;24.90;;;;;;6285848;28;20525;-77
2021/03/31 15:36:44;;;;;;;5.35;2.00;;;28.50;24.90;;;;;;6284374;28;20041;-78
2021/03/31 15:39:46;;;;;;;4.63;1.98;;;28.20;24.80;;;;;;6283048;28;20091;-78
2021/03/31 15:42:47;;;;;;;11.80;3.90;;;28.00;25.30;;;;;;6293495;28;20071;-80
2021/03/31 15:45:51;;;;;;;10.13;2.92;;;27.80;25.10;;;;;;6282826;28;20040;-79
2021/03/31 15:48:59;;;;;;;4.25;2.03;;;27.70;25.30;;;;;;6281889;28;20053;-80
2021/03/31 15:52:01;;;;;;;8.60;1.98;;;27.40;25.20;;;;;;6278214;28;20040;-78
2021/03/31 15:55:04;;;;;;;8.73;2.35;;;27.30;25.00;;;;;;6273987;28;20132;-77
2021/03/31 15:58:07;;;;;;;8.70;3.22;;;27.10;25.60;;;;;;6276060;28;20080;-79
2021/03/31 16:01:08;;;;;;;8.63;2.50;;;26.90;25.90;;;;;;6276287;28;20065;-78
2021/03/31 16:04:12;;;;;;;6.38;2.33;;;26.80;26.00;;;;;;6273310;28;20049;-78
2021/03/31 16:07:31;;;;;;;1.90;1.30;;;26.70;26.40;;;;;;6275472;28;20057;-77
2021/03/31 16:10:33;;;;;;;3.03;1.52;;;26.50;25.70;;;;;;6274449;28;20095;-79
2021/03/31 16:13:35;;;;;;;4.88;1.65;;;26.40;26.20;;;;;;6272675;28;20041;-78
2021/03/31 16:16:37;;;;;;;7.82;1.77;;;26.20;26.00;;;;;;6286728;28;20528;-79